sensor_id;sensor_type;location;lat;lon;timestamp;P1;durP1;ratioP1;P2;durP2;ratioP2
22121;SDS011;11227;53.046;10.512;2022-11-20T00:00:52;2.58;;;1.70;;
22121;SDS011;11227;53.046;10.512;2022-11-20T00:04:54;2.15;;;1.80;;
22121;SDS011;11227;53.046;10.512;2022-11-20T00:08:57;9.20;;;2.13;;
22121;SDS011;11227;53.046;10.512;2022-11-20T00:13:01;2.37;;;1.90;;
22121;SDS011;11227;53.046;10.512;2022-11-20T00:17:02;2.38;;;1.60;;
22121;SDS011;11227;53.046;10.512;2022-11-20T00:21:05;3.28;;;1.60;;
22121;SDS011;11227;53.046;10.512;2022-11-20T00:25:08;2.00;;;1.52;;
22121;SDS011;11227;53.046;10.512;2022-11-20T00:29:11;3.60;;;1.80;;
22121;SDS011;11227;53.046;10.512;2022-11-20T00:33:12;1.83;;;1.40;;
22121;SDS011;11227;53.046;10.512;2022-11-20T00:37:14;2.28;;;1.70;;
22121;SDS011;11227;53.046;10.512;2022-11-20T00:41:16;2.35;;;1.63;;
22121;SDS011;11227;53.046;10.512;2022-11-20T00:45:17;2.08;;;1.50;;
22121;SDS011;11227;53.046;10.512;2022-11-20T00:49:19;1.52;;;1.42;;
22121;SDS011;11227;53.046;10.512;2022-11-20T00:53:21;3.13;;;2.00;;
22121;SDS011;11227;53.046;10.512;2022-11-20T00:57:23;2.42;;;2.00;;
22121;SDS011;11227;53.046;10.512;2022-11-20T01:01:25;3.95;;;1.73;;
22121;SDS011;11227;53.046;10.512;2022-11-20T01:05:27;3.22;;;1.77;;
22121;SDS011;11227;53.046;10.512;2022-11-20T01:09:29;1.92;;;1.50;;
22121;SDS011;11227;53.046;10.512;2022-11-20T01:13:31;2.20;;;1.73;;
22121;SDS011;11227;53.046;10.512;2022-11-20T01:17:39;2.17;;;1.40;;
22121;SDS011;11227;53.046;10.512;2022-11-20T01:21:41;3.55;;;1.80;;
22121;SDS011;11227;53.046;10.512;2022-11-20T01:25:44;2.97;;;1.88;;
22121;SDS011;11227;53.046;10.512;2022-11-20T01:29:46;2.38;;;1.70;;
22121;SDS011;11227;53.046;10.512;2022-11-20T01:33:49;2.08;;;1.80;;
22121;SDS011;11227;53.046;10.512;2022-11-20T01:37:53;1.73;;;1.30;;
22121;SDS011;11227;53.046;10.512;2022-11-20T01:41:55;1.70;;;1.40;;
22121;SDS011;11227;53.046;10.512;2022-11-20T01:46:18;2.30;;;1.65;;
22121;SDS011;11227;53.046;10.512;2022-11-20T01:50:29;1.88;;;1.63;;
22121;SDS011;11227;53.046;10.512;2022-11-20T01:54:33;2.33;;;1.40;;
22121;SDS011;11227;53.046;10.512;2022-11-20T01:58:44;5.07;;;1.42;;
22121;SDS011;11227;53.046;10.512;2022-11-20T02:02:53;1.48;;;1.33;;
22121;SDS011;11227;53.046;10.512;2022-11-20T02:07:01;2.03;;;1.50;;
22121;SDS011;11227;53.046;10.512;2022-11-20T02:11:05;2.03;;;1.83;;
22121;SDS011;11227;53.046;10.512;2022-11-20T02:15:07;2.30;;;1.60;;
22121;SDS011;11227;53.046;10.512;2022-11-20T02:19:10;2.38;;;1.38;;
22121;SDS011;11227;53.046;10.512;2022-11-20T02:27:53;1.60;;;1.30;;
22121;SDS011;11227;53.046;10.512;2022-11-20T02:31:55;2.78;;;1.70;;
22121;SDS011;11227;53.046;10.512;2022-11-20T02:36:00;2.28;;;1.60;;
22121;SDS011;11227;53.046;10.512;2022-11-20T02:40:02;2.72;;;1.63;;
22121;SDS011;11227;53.046;10.512;2022-11-20T02:44:04;3.67;;;1.75;;
22121;SDS011;11227;53.046;10.512;2022-11-20T02:48:06;5.25;;;1.77;;
22121;SDS011;11227;53.046;10.512;2022-11-20T02:52:08;2.22;;;1.40;;
22121;SDS011;11227;53.046;10.512;2022-11-20T02:56:10;3.25;;;1.80;;
22121;SDS011;11227;53.046;10.512;2022-11-20T03:00:12;2.80;;;1.63;;
22121;SDS011;11227;53.046;10.512;2022-11-20T03:04:14;2.05;;;1.70;;
22121;SDS011;11227;53.046;10.512;2022-11-20T03:08:16;2.58;;;1.63;;
22121;SDS011;11227;53.046;10.512;2022-11-20T03:12:17;1.95;;;1.40;;
22121;SDS011;11227;53.046;10.512;2022-11-20T03:16:20;1.65;;;1.55;;
22121;SDS011;11227;53.046;10.512;2022-11-20T03:20:23;1.70;;;1.52;;
22121;SDS011;11227;53.046;10.512;2022-11-20T03:24:24;1.60;;;1.35;;
22121;SDS011;11227;53.046;10.512;2022-11-20T03:28:26;1.70;;;1.23;;
22121;SDS011;11227;53.046;10.512;2022-11-20T03:32:28;1.98;;;1.50;;
22121;SDS011;11227;53.046;10.512;2022-11-20T03:36:30;1.80;;;1.70;;
22121;SDS011;11227;53.046;10.512;2022-11-20T03:40:33;1.90;;;1.40;;
22121;SDS011;11227;53.046;10.512;2022-11-20T03:44:35;1.85;;;1.30;;
22121;SDS011;11227;53.046;10.512;2022-11-20T03:48:37;2.50;;;1.40;;
22121;SDS011;11227;53.046;10.512;2022-11-20T03:52:39;1.48;;;1.35;;
22121;SDS011;11227;53.046;10.512;2022-11-20T03:56:40;1.67;;;1.38;;
22121;SDS011;11227;53.046;10.512;2022-11-20T04:00:42;1.77;;;1.25;;
22121;SDS011;11227;53.046;10.512;2022-11-20T04:04:44;2.35;;;1.50;;
22121;SDS011;11227;53.046;10.512;2022-11-20T04:08:46;4.32;;;1.50;;
22121;SDS011;11227;53.046;10.512;2022-11-20T04:12:54;2.17;;;1.38;;
22121;SDS011;11227;53.046;10.512;2022-11-20T04:16:55;1.58;;;1.30;;
22121;SDS011;11227;53.046;10.512;2022-11-20T04:20:57;1.58;;;1.30;;
22121;SDS011;11227;53.046;10.512;2022-11-20T04:24:59;1.55;;;1.30;;
22121;SDS011;11227;53.046;10.512;2022-11-20T04:29:01;1.92;;;1.25;;
22121;SDS011;11227;53.046;10.512;2022-11-20T04:33:03;2.03;;;1.70;;
22121;SDS011;11227;53.046;10.512;2022-11-20T04:37:05;1.60;;;1.40;;
22121;SDS011;11227;53.046;10.512;2022-11-20T04:41:07;1.98;;;1.67;;
22121;SDS011;11227;53.046;10.512;2022-11-20T04:45:13;1.80;;;1.65;;
22121;SDS011;11227;53.046;10.512;2022-11-20T04:49:15;2.60;;;1.65;;
22121;SDS011;11227;53.046;10.512;2022-11-20T04:53:16;2.72;;;1.88;;
22121;SDS011;11227;53.046;10.512;2022-11-20T04:57:19;3.00;;;1.70;;
22121;SDS011;11227;53.046;10.512;2022-11-20T05:01:21;5.53;;;1.90;;
22121;SDS011;11227;53.046;10.512;2022-11-20T05:05:25;3.55;;;1.73;;
22121;SDS011;11227;53.046;10.512;2022-11-20T05:09:27;2.33;;;1.65;;
22121;SDS011;11227;53.046;10.512;2022-11-20T05:13:28;1.92;;;1.42;;
22121;SDS011;11227;53.046;10.512;2022-11-20T05:17:30;1.95;;;1.50;;
22121;SDS011;11227;53.046;10.512;2022-11-20T05:21:32;1.90;;;1.45;;
22121;SDS011;11227;53.046;10.512;2022-11-20T05:25:33;2.25;;;1.50;;
22121;SDS011;11227;53.046;10.512;2022-11-20T05:29:35;2.15;;;1.77;;
22121;SDS011;11227;53.046;10.512;2022-11-20T05:33:39;1.90;;;1.70;;
22121;SDS011;11227;53.046;10.512;2022-11-20T05:37:42;1.95;;;1.50;;
22121;SDS011;11227;53.046;10.512;2022-11-20T05:41:44;2.83;;;1.75;;
22121;SDS011;11227;53.046;10.512;2022-11-20T05:45:52;1.88;;;1.60;;
22121;SDS011;11227;53.046;10.512;2022-11-20T05:49:54;2.25;;;1.67;;
22121;SDS011;11227;53.046;10.512;2022-11-20T05:53:56;1.90;;;1.60;;
22121;SDS011;11227;53.046;10.512;2022-11-20T05:57:59;2.72;;;1.80;;
22121;SDS011;11227;53.046;10.512;2022-11-20T06:02:01;1.92;;;1.70;;
22121;SDS011;11227;53.046;10.512;2022-11-20T06:06:03;2.67;;;1.73;;
22121;SDS011;11227;53.046;10.512;2022-11-20T06:10:05;1.92;;;1.60;;
22121;SDS011;11227;53.046;10.512;2022-11-20T06:14:08;2.05;;;1.50;;
22121;SDS011;11227;53.046;10.512;2022-11-20T06:18:09;2.22;;;1.70;;
22121;SDS011;11227;53.046;10.512;2022-11-20T06:22:11;2.40;;;2.10;;
22121;SDS011;11227;53.046;10.512;2022-11-20T06:26:14;2.75;;;2.08;;
22121;SDS011;11227;53.046;10.512;2022-11-20T06:30:17;2.72;;;1.58;;
22121;SDS011;11227;53.046;10.512;2022-11-20T06:34:19;2.53;;;2.22;;
22121;SDS011;11227;53.046;10.512;2022-11-20T06:38:21;1.95;;;1.70;;
22121;SDS011;11227;53.046;10.512;2022-11-20T06:42:22;2.08;;;1.73;;
22121;SDS011;11227;53.046;10.512;2022-11-20T06:46:24;2.10;;;1.50;;
22121;SDS011;11227;53.046;10.512;2022-11-20T06:50:26;2.08;;;1.73;;
22121;SDS011;11227;53.046;10.512;2022-11-20T06:54:27;2.50;;;2.00;;
22121;SDS011;11227;53.046;10.512;2022-11-20T06:58:30;2.92;;;2.17;;
22121;SDS011;11227;53.046;10.512;2022-11-20T07:02:33;2.50;;;2.00;;
22121;SDS011;11227;53.046;10.512;2022-11-20T07:06:35;3.30;;;1.90;;
22121;SDS011;11227;53.046;10.512;2022-11-20T07:10:37;2.45;;;2.05;;
22121;SDS011;11227;53.046;10.512;2022-11-20T07:14:39;3.20;;;2.08;;
22121;SDS011;11227;53.046;10.512;2022-11-20T07:18:41;2.85;;;2.30;;
22121;SDS011;11227;53.046;10.512;2022-11-20T07:22:53;2.08;;;1.88;;
22121;SDS011;11227;53.046;10.512;2022-11-20T07:26:56;2.15;;;1.95;;
22121;SDS011;11227;53.046;10.512;2022-11-20T07:30:57;2.35;;;1.83;;
22121;SDS011;11227;53.046;10.512;2022-11-20T07:34:59;2.60;;;1.92;;
22121;SDS011;11227;53.046;10.512;2022-11-20T07:39:01;3.25;;;1.90;;
22121;SDS011;11227;53.046;10.512;2022-11-20T07:43:03;2.35;;;1.90;;
22121;SDS011;11227;53.046;10.512;2022-11-20T07:47:04;6.30;;;2.10;;
22121;SDS011;11227;53.046;10.512;2022-11-20T07:51:06;3.05;;;2.30;;
22121;SDS011;11227;53.046;10.512;2022-11-20T07:55:08;2.08;;;1.63;;
22121;SDS011;11227;53.046;10.512;2022-11-20T07:59:10;2.78;;;2.08;;
22121;SDS011;11227;53.046;10.512;2022-11-20T08:03:12;2.50;;;1.92;;
22121;SDS011;11227;53.046;10.512;2022-11-20T08:07:14;3.20;;;2.40;;
22121;SDS011;11227;53.046;10.512;2022-11-20T08:11:16;3.13;;;2.00;;
22121;SDS011;11227;53.046;10.512;2022-11-20T08:15:37;2.75;;;2.20;;
22121;SDS011;11227;53.046;10.512;2022-11-20T08:19:40;2.47;;;2.05;;
22121;SDS011;11227;53.046;10.512;2022-11-20T08:23:42;3.75;;;2.60;;
22121;SDS011;11227;53.046;10.512;2022-11-20T08:27:43;2.90;;;2.25;;
22121;SDS011;11227;53.046;10.512;2022-11-20T08:31:45;2.53;;;2.10;;
22121;SDS011;11227;53.046;10.512;2022-11-20T08:35:46;2.95;;;2.03;;
22121;SDS011;11227;53.046;10.512;2022-11-20T08:39:48;3.08;;;2.30;;
22121;SDS011;11227;53.046;10.512;2022-11-20T08:43:50;2.70;;;1.95;;
22121;SDS011;11227;53.046;10.512;2022-11-20T08:47:53;3.70;;;1.90;;
22121;SDS011;11227;53.046;10.512;2022-11-20T08:52:00;2.72;;;2.13;;
22121;SDS011;11227;53.046;10.512;2022-11-20T08:56:02;2.78;;;1.98;;
22121;SDS011;11227;53.046;10.512;2022-11-20T09:00:05;3.80;;;2.08;;
22121;SDS011;11227;53.046;10.512;2022-11-20T09:04:08;3.25;;;2.03;;
22121;SDS011;11227;53.046;10.512;2022-11-20T09:08:10;3.50;;;2.47;;
22121;SDS011;11227;53.046;10.512;2022-11-20T09:12:12;5.00;;;2.40;;
22121;SDS011;11227;53.046;10.512;2022-11-20T09:16:13;3.22;;;2.78;;
22121;SDS011;11227;53.046;10.512;2022-11-20T09:20:15;2.50;;;2.30;;
22121;SDS011;11227;53.046;10.512;2022-11-20T09:24:17;5.30;;;2.47;;
22121;SDS011;11227;53.046;10.512;2022-11-20T09:28:19;3.17;;;2.40;;
22121;SDS011;11227;53.046;10.512;2022-11-20T09:32:21;4.05;;;2.33;;
22121;SDS011;11227;53.046;10.512;2022-11-20T09:36:23;3.42;;;2.33;;
22121;SDS011;11227;53.046;10.512;2022-11-20T09:40:25;4.97;;;2.40;;
22121;SDS011;11227;53.046;10.512;2022-11-20T09:44:36;4.68;;;2.38;;
22121;SDS011;11227;53.046;10.512;2022-11-20T09:57:24;4.40;;;2.58;;
22121;SDS011;11227;53.046;10.512;2022-11-20T10:01:33;6.97;;;2.30;;
22121;SDS011;11227;53.046;10.512;2022-11-20T10:05:39;6.43;;;2.42;;
22121;SDS011;11227;53.046;10.512;2022-11-20T10:09:52;4.82;;;2.40;;
22121;SDS011;11227;53.046;10.512;2022-11-20T10:14:00;6.35;;;2.70;;
22121;SDS011;11227;53.046;10.512;2022-11-20T10:31:37;5.20;;;2.97;;
22121;SDS011;11227;53.046;10.512;2022-11-20T10:35:48;5.72;;;2.95;;
22121;SDS011;11227;53.046;10.512;2022-11-20T10:44:28;4.40;;;2.42;;
22121;SDS011;11227;53.046;10.512;2022-11-20T10:48:55;5.38;;;2.42;;
22121;SDS011;11227;53.046;10.512;2022-11-20T10:57:15;4.82;;;2.72;;
22121;SDS011;11227;53.046;10.512;2022-11-20T11:01:22;5.03;;;2.58;;
22121;SDS011;11227;53.046;10.512;2022-11-20T11:05:44;3.65;;;2.63;;
22121;SDS011;11227;53.046;10.512;2022-11-20T11:09:55;7.47;;;2.90;;
22121;SDS011;11227;53.046;10.512;2022-11-20T11:14:12;6.43;;;2.65;;
22121;SDS011;11227;53.046;10.512;2022-11-20T11:18:28;8.13;;;3.03;;
22121;SDS011;11227;53.046;10.512;2022-11-20T11:22:42;3.70;;;2.15;;
22121;SDS011;11227;53.046;10.512;2022-11-20T11:26:59;5.55;;;2.42;;
22121;SDS011;11227;53.046;10.512;2022-11-20T11:31:21;4.43;;;2.55;;
22121;SDS011;11227;53.046;10.512;2022-11-20T11:35:25;3.22;;;2.10;;
22121;SDS011;11227;53.046;10.512;2022-11-20T11:39:29;5.47;;;2.60;;
22121;SDS011;11227;53.046;10.512;2022-11-20T11:43:32;4.65;;;1.95;;
22121;SDS011;11227;53.046;10.512;2022-11-20T11:47:55;3.47;;;2.53;;
22121;SDS011;11227;53.046;10.512;2022-11-20T11:52:13;4.13;;;2.20;;
22121;SDS011;11227;53.046;10.512;2022-11-20T11:56:17;12.18;;;2.60;;
22121;SDS011;11227;53.046;10.512;2022-11-20T12:00:21;4.45;;;2.28;;
22121;SDS011;11227;53.046;10.512;2022-11-20T12:12:47;5.90;;;2.80;;
22121;SDS011;11227;53.046;10.512;2022-11-20T12:16:53;3.15;;;2.33;;
22121;SDS011;11227;53.046;10.512;2022-11-20T12:25:22;4.20;;;1.98;;
22121;SDS011;11227;53.046;10.512;2022-11-20T12:29:36;4.22;;;2.28;;
22121;SDS011;11227;53.046;10.512;2022-11-20T12:33:59;6.30;;;2.55;;
22121;SDS011;11227;53.046;10.512;2022-11-20T12:55:24;5.35;;;2.03;;
22121;SDS011;11227;53.046;10.512;2022-11-20T13:03:51;2.67;;;1.95;;
22121;SDS011;11227;53.046;10.512;2022-11-20T13:07:57;4.47;;;2.08;;
22121;SDS011;11227;53.046;10.512;2022-11-20T13:20:26;5.20;;;1.98;;
22121;SDS011;11227;53.046;10.512;2022-11-20T13:24:30;4.07;;;2.20;;
22121;SDS011;11227;53.046;10.512;2022-11-20T13:28:32;3.42;;;2.05;;
22121;SDS011;11227;53.046;10.512;2022-11-20T13:32:34;3.10;;;1.90;;
22121;SDS011;11227;53.046;10.512;2022-11-20T13:36:35;4.30;;;1.92;;
22121;SDS011;11227;53.046;10.512;2022-11-20T13:40:51;5.88;;;2.40;;
22121;SDS011;11227;53.046;10.512;2022-11-20T13:45:29;5.63;;;2.10;;
22121;SDS011;11227;53.046;10.512;2022-11-20T13:49:38;4.70;;;2.15;;
22121;SDS011;11227;53.046;10.512;2022-11-20T14:02:26;2.78;;;1.88;;
22121;SDS011;11227;53.046;10.512;2022-11-20T14:06:30;3.45;;;1.75;;
22121;SDS011;11227;53.046;10.512;2022-11-20T14:10:36;4.45;;;1.90;;
22121;SDS011;11227;53.046;10.512;2022-11-20T14:14:47;3.88;;;2.33;;
22121;SDS011;11227;53.046;10.512;2022-11-20T14:18:53;4.60;;;2.20;;
22121;SDS011;11227;53.046;10.512;2022-11-20T14:22:56;3.92;;;2.17;;
22121;SDS011;11227;53.046;10.512;2022-11-20T14:26:58;4.50;;;2.38;;
22121;SDS011;11227;53.046;10.512;2022-11-20T14:31:00;5.28;;;1.80;;
22121;SDS011;11227;53.046;10.512;2022-11-20T14:35:06;6.65;;;1.90;;
22121;SDS011;11227;53.046;10.512;2022-11-20T14:39:12;3.08;;;1.88;;
22121;SDS011;11227;53.046;10.512;2022-11-20T14:43:33;3.83;;;1.70;;
22121;SDS011;11227;53.046;10.512;2022-11-20T14:47:37;2.03;;;1.70;;
22121;SDS011;11227;53.046;10.512;2022-11-20T14:51:39;6.22;;;1.80;;
22121;SDS011;11227;53.046;10.512;2022-11-20T14:55:44;3.20;;;1.92;;
22121;SDS011;11227;53.046;10.512;2022-11-20T15:04:12;5.78;;;1.60;;
22121;SDS011;11227;53.046;10.512;2022-11-20T15:08:14;3.67;;;1.85;;
22121;SDS011;11227;53.046;10.512;2022-11-20T15:12:17;3.15;;;1.95;;
22121;SDS011;11227;53.046;10.512;2022-11-20T15:16:20;1.80;;;1.45;;
22121;SDS011;11227;53.046;10.512;2022-11-20T15:20:29;5.18;;;1.50;;
22121;SDS011;11227;53.046;10.512;2022-11-20T15:33:02;4.63;;;1.60;;
22121;SDS011;11227;53.046;10.512;2022-11-20T15:37:03;1.88;;;1.52;;
22121;SDS011;11227;53.046;10.512;2022-11-20T15:41:05;5.65;;;2.50;;
22121;SDS011;11227;53.046;10.512;2022-11-20T15:45:07;2.67;;;1.58;;
22121;SDS011;11227;53.046;10.512;2022-11-20T15:49:13;4.03;;;1.63;;
22121;SDS011;11227;53.046;10.512;2022-11-20T15:53:16;1.90;;;1.30;;
22121;SDS011;11227;53.046;10.512;2022-11-20T15:57:18;3.13;;;1.75;;
22121;SDS011;11227;53.046;10.512;2022-11-20T16:01:21;1.85;;;1.70;;
22121;SDS011;11227;53.046;10.512;2022-11-20T16:05:23;2.47;;;1.42;;
22121;SDS011;11227;53.046;10.512;2022-11-20T16:09:31;1.58;;;1.33;;
22121;SDS011;11227;53.046;10.512;2022-11-20T16:13:33;2.22;;;1.85;;
22121;SDS011;11227;53.046;10.512;2022-11-20T16:17:53;2.30;;;1.55;;
22121;SDS011;11227;53.046;10.512;2022-11-20T16:21:56;1.73;;;1.55;;
22121;SDS011;11227;53.046;10.512;2022-11-20T16:26:08;2.85;;;1.67;;
22121;SDS011;11227;53.046;10.512;2022-11-20T16:30:11;4.43;;;1.77;;
22121;SDS011;11227;53.046;10.512;2022-11-20T16:34:15;2.67;;;1.58;;
22121;SDS011;11227;53.046;10.512;2022-11-20T16:38:17;3.38;;;1.70;;
22121;SDS011;11227;53.046;10.512;2022-11-20T16:42:19;3.78;;;1.70;;
22121;SDS011;11227;53.046;10.512;2022-11-20T16:46:21;4.50;;;2.00;;
22121;SDS011;11227;53.046;10.512;2022-11-20T16:50:23;1.92;;;1.33;;
22121;SDS011;11227;53.046;10.512;2022-11-20T16:54:25;3.70;;;2.00;;
22121;SDS011;11227;53.046;10.512;2022-11-20T16:58:27;2.90;;;1.75;;
22121;SDS011;11227;53.046;10.512;2022-11-20T17:02:29;1.67;;;1.45;;
22121;SDS011;11227;53.046;10.512;2022-11-20T17:06:34;2.28;;;1.70;;
22121;SDS011;11227;53.046;10.512;2022-11-20T17:10:38;2.15;;;1.63;;
22121;SDS011;11227;53.046;10.512;2022-11-20T17:14:39;2.25;;;1.60;;
22121;SDS011;11227;53.046;10.512;2022-11-20T17:18:41;2.85;;;1.48;;
22121;SDS011;11227;53.046;10.512;2022-11-20T17:22:44;2.00;;;1.50;;
22121;SDS011;11227;53.046;10.512;2022-11-20T17:26:47;3.08;;;1.58;;
22121;SDS011;11227;53.046;10.512;2022-11-20T17:30:49;1.88;;;1.67;;
22121;SDS011;11227;53.046;10.512;2022-11-20T17:34:50;4.50;;;1.77;;
22121;SDS011;11227;53.046;10.512;2022-11-20T17:38:52;1.98;;;1.58;;
22121;SDS011;11227;53.046;10.512;2022-11-20T17:42:54;2.72;;;1.80;;
22121;SDS011;11227;53.046;10.512;2022-11-20T17:46:56;2.17;;;1.90;;
22121;SDS011;11227;53.046;10.512;2022-11-20T17:51:01;2.00;;;1.60;;
22121;SDS011;11227;53.046;10.512;2022-11-20T17:55:05;2.28;;;1.60;;
22121;SDS011;11227;53.046;10.512;2022-11-20T17:59:08;3.20;;;1.60;;
22121;SDS011;11227;53.046;10.512;2022-11-20T18:03:12;2.35;;;1.80;;
22121;SDS011;11227;53.046;10.512;2022-11-20T18:07:13;2.40;;;1.95;;
22121;SDS011;11227;53.046;10.512;2022-11-20T18:11:25;2.97;;;1.58;;
22121;SDS011;11227;53.046;10.512;2022-11-20T18:15:28;3.90;;;1.65;;
22121;SDS011;11227;53.046;10.512;2022-11-20T18:19:31;2.08;;;1.58;;
22121;SDS011;11227;53.046;10.512;2022-11-20T18:23:40;2.88;;;1.92;;
22121;SDS011;11227;53.046;10.512;2022-11-20T18:27:42;1.42;;;1.33;;
22121;SDS011;11227;53.046;10.512;2022-11-20T18:31:44;2.13;;;1.92;;
22121;SDS011;11227;53.046;10.512;2022-11-20T18:35:46;3.63;;;1.65;;
22121;SDS011;11227;53.046;10.512;2022-11-20T18:39:48;2.42;;;1.80;;
22121;SDS011;11227;53.046;10.512;2022-11-20T18:43:50;2.67;;;1.70;;
22121;SDS011;11227;53.046;10.512;2022-11-20T18:48:10;3.92;;;2.10;;
22121;SDS011;11227;53.046;10.512;2022-11-20T18:52:12;5.88;;;2.40;;
22121;SDS011;11227;53.046;10.512;2022-11-20T18:56:13;6.00;;;2.47;;
22121;SDS011;11227;53.046;10.512;2022-11-20T19:00:15;3.58;;;2.33;;
22121;SDS011;11227;53.046;10.512;2022-11-20T19:04:17;6.05;;;2.85;;
22121;SDS011;11227;53.046;10.512;2022-11-20T19:08:19;4.03;;;2.40;;
